sensor_id;sensor_type;location;lat;lon;timestamp;P1;durP1;ratioP1;P2;durP2;ratioP2
68993;SDS011;56054;50.968;5.816;2022-12-18T00:01:58;50.53;;;21.27;;
68993;SDS011;56054;50.968;5.816;2022-12-18T00:05:05;52.40;;;23.00;;
68993;SDS011;56054;50.968;5.816;2022-12-18T00:08:12;48.60;;;23.30;;
68993;SDS011;56054;50.968;5.816;2022-12-18T00:11:20;52.00;;;21.63;;
68993;SDS011;56054;50.968;5.816;2022-12-18T00:14:29;49.03;;;23.93;;
68993;SDS011;56054;50.968;5.816;2022-12-18T00:17:51;59.40;;;25.20;;
68993;SDS011;56054;50.968;5.816;2022-12-18T00:21:02;53.10;;;23.73;;
68993;SDS011;56054;50.968;5.816;2022-12-18T00:24:10;43.97;;;21.73;;
68993;SDS011;56054;50.968;5.816;2022-12-18T00:27:17;55.57;;;24.63;;
68993;SDS011;56054;50.968;5.816;2022-12-18T00:30:24;48.23;;;23.23;;
68993;SDS011;56054;50.968;5.816;2022-12-18T00:33:31;54.50;;;22.63;;
68993;SDS011;56054;50.968;5.816;2022-12-18T00:36:38;63.50;;;24.93;;
68993;SDS011;56054;50.968;5.816;2022-12-18T00:39:47;53.27;;;22.10;;
68993;SDS011;56054;50.968;5.816;2022-12-18T00:42:54;43.93;;;20.07;;
68993;SDS011;56054;50.968;5.816;2022-12-18T00:46:01;36.50;;;19.13;;
68993;SDS011;56054;50.968;5.816;2022-12-18T00:49:09;50.70;;;21.70;;
68993;SDS011;56054;50.968;5.816;2022-12-18T00:52:16;43.57;;;19.80;;
68993;SDS011;56054;50.968;5.816;2022-12-18T00:55:23;38.40;;;19.87;;
68993;SDS011;56054;50.968;5.816;2022-12-18T00:58:30;42.67;;;19.43;;
68993;SDS011;56054;50.968;5.816;2022-12-18T01:01:38;39.50;;;20.40;;
68993;SDS011;56054;50.968;5.816;2022-12-18T01:04:45;40.07;;;18.50;;
68993;SDS011;56054;50.968;5.816;2022-12-18T01:07:54;41.23;;;18.67;;
68993;SDS011;56054;50.968;5.816;2022-12-18T01:11:08;37.17;;;17.50;;
68993;SDS011;56054;50.968;5.816;2022-12-18T01:14:17;31.23;;;14.70;;
68993;SDS011;56054;50.968;5.816;2022-12-18T01:17:24;33.17;;;15.60;;
68993;SDS011;56054;50.968;5.816;2022-12-18T01:20:31;37.73;;;16.23;;
68993;SDS011;56054;50.968;5.816;2022-12-18T01:23:39;39.07;;;17.70;;
68993;SDS011;56054;50.968;5.816;2022-12-18T01:26:47;27.47;;;15.67;;
68993;SDS011;56054;50.968;5.816;2022-12-18T01:29:54;31.77;;;16.23;;
68993;SDS011;56054;50.968;5.816;2022-12-18T01:33:01;30.23;;;15.50;;
68993;SDS011;56054;50.968;5.816;2022-12-18T01:36:17;36.33;;;16.93;;
68993;SDS011;56054;50.968;5.816;2022-12-18T01:39:25;37.40;;;19.60;;
68993;SDS011;56054;50.968;5.816;2022-12-18T01:42:32;37.90;;;17.30;;
68993;SDS011;56054;50.968;5.816;2022-12-18T01:45:39;39.50;;;18.23;;
68993;SDS011;56054;50.968;5.816;2022-12-18T01:48:48;35.93;;;17.47;;
68993;SDS011;56054;50.968;5.816;2022-12-18T01:51:58;35.07;;;16.67;;
68993;SDS011;56054;50.968;5.816;2022-12-18T01:55:05;35.97;;;16.80;;
68993;SDS011;56054;50.968;5.816;2022-12-18T01:58:14;30.90;;;16.33;;
68993;SDS011;56054;50.968;5.816;2022-12-18T02:01:22;33.37;;;16.47;;
68993;SDS011;56054;50.968;5.816;2022-12-18T02:04:30;26.27;;;15.30;;
68993;SDS011;56054;50.968;5.816;2022-12-18T02:11:27;28.57;;;15.13;;
68993;SDS011;56054;50.968;5.816;2022-12-18T02:14:38;28.53;;;14.37;;
68993;SDS011;56054;50.968;5.816;2022-12-18T02:17:50;28.30;;;14.60;;
68993;SDS011;56054;50.968;5.816;2022-12-18T02:24:43;27.47;;;13.90;;
68993;SDS011;56054;50.968;5.816;2022-12-18T02:28:02;22.77;;;11.80;;
68993;SDS011;56054;50.968;5.816;2022-12-18T02:31:14;21.10;;;11.37;;
68993;SDS011;56054;50.968;5.816;2022-12-18T02:34:27;21.60;;;11.93;;
68993;SDS011;56054;50.968;5.816;2022-12-18T02:37:39;28.23;;;11.10;;
68993;SDS011;56054;50.968;5.816;2022-12-18T02:40:48;22.47;;;10.80;;
68993;SDS011;56054;50.968;5.816;2022-12-18T02:43:58;18.10;;;9.37;;
68993;SDS011;56054;50.968;5.816;2022-12-18T02:47:08;21.87;;;10.23;;
68993;SDS011;56054;50.968;5.816;2022-12-18T02:53:36;21.60;;;10.57;;
68993;SDS011;56054;50.968;5.816;2022-12-18T02:56:52;22.57;;;10.23;;
68993;SDS011;56054;50.968;5.816;2022-12-18T03:00:06;21.00;;;9.57;;
68993;SDS011;56054;50.968;5.816;2022-12-18T03:03:24;20.00;;;10.77;;
68993;SDS011;56054;50.968;5.816;2022-12-18T03:06:37;18.07;;;10.07;;
68993;SDS011;56054;50.968;5.816;2022-12-18T03:09:49;27.43;;;11.80;;
68993;SDS011;56054;50.968;5.816;2022-12-18T03:13:10;26.67;;;12.30;;
68993;SDS011;56054;50.968;5.816;2022-12-18T03:16:22;18.40;;;10.03;;
68993;SDS011;56054;50.968;5.816;2022-12-18T03:19:34;22.30;;;12.67;;
68993;SDS011;56054;50.968;5.816;2022-12-18T03:22:42;27.57;;;12.03;;
68993;SDS011;56054;50.968;5.816;2022-12-18T03:25:54;25.67;;;13.07;;
68993;SDS011;56054;50.968;5.816;2022-12-18T03:29:07;21.97;;;10.43;;
68993;SDS011;56054;50.968;5.816;2022-12-18T03:32:21;22.60;;;12.53;;
68993;SDS011;56054;50.968;5.816;2022-12-18T03:35:35;22.70;;;12.87;;
68993;SDS011;56054;50.968;5.816;2022-12-18T03:38:46;24.70;;;11.80;;
68993;SDS011;56054;50.968;5.816;2022-12-18T03:41:59;22.30;;;10.87;;
68993;SDS011;56054;50.968;5.816;2022-12-18T03:45:19;19.70;;;11.20;;
68993;SDS011;56054;50.968;5.816;2022-12-18T03:48:41;20.23;;;9.13;;
68993;SDS011;56054;50.968;5.816;2022-12-18T03:51:56;14.20;;;6.93;;
68993;SDS011;56054;50.968;5.816;2022-12-18T03:55:10;13.50;;;6.83;;
68993;SDS011;56054;50.968;5.816;2022-12-18T03:58:21;12.40;;;7.13;;
68993;SDS011;56054;50.968;5.816;2022-12-18T04:01:45;11.47;;;6.20;;
68993;SDS011;56054;50.968;5.816;2022-12-18T04:04:56;15.07;;;6.70;;
68993;SDS011;56054;50.968;5.816;2022-12-18T04:08:07;15.33;;;7.97;;
68993;SDS011;56054;50.968;5.816;2022-12-18T04:11:20;14.03;;;6.93;;
68993;SDS011;56054;50.968;5.816;2022-12-18T04:14:27;11.70;;;6.53;;
68993;SDS011;56054;50.968;5.816;2022-12-18T04:17:34;15.67;;;7.57;;
68993;SDS011;56054;50.968;5.816;2022-12-18T04:20:41;17.00;;;7.50;;
68993;SDS011;56054;50.968;5.816;2022-12-18T04:23:49;13.10;;;6.97;;
68993;SDS011;56054;50.968;5.816;2022-12-18T04:26:57;14.70;;;6.57;;
68993;SDS011;56054;50.968;5.816;2022-12-18T04:30:07;10.80;;;6.43;;
68993;SDS011;56054;50.968;5.816;2022-12-18T04:33:15;16.20;;;7.73;;
68993;SDS011;56054;50.968;5.816;2022-12-18T04:36:22;13.20;;;6.53;;
68993;SDS011;56054;50.968;5.816;2022-12-18T04:39:29;11.43;;;6.73;;
68993;SDS011;56054;50.968;5.816;2022-12-18T04:42:41;12.73;;;7.20;;
68993;SDS011;56054;50.968;5.816;2022-12-18T04:45:49;13.73;;;8.03;;
68993;SDS011;56054;50.968;5.816;2022-12-18T04:48:56;11.10;;;5.97;;
68993;SDS011;56054;50.968;5.816;2022-12-18T04:52:03;15.47;;;7.40;;
68993;SDS011;56054;50.968;5.816;2022-12-18T04:55:10;12.60;;;6.93;;
68993;SDS011;56054;50.968;5.816;2022-12-18T04:58:17;17.40;;;7.43;;
68993;SDS011;56054;50.968;5.816;2022-12-18T05:01:24;15.57;;;7.37;;
68993;SDS011;56054;50.968;5.816;2022-12-18T05:04:31;14.40;;;7.77;;
68993;SDS011;56054;50.968;5.816;2022-12-18T05:07:38;13.20;;;7.40;;
68993;SDS011;56054;50.968;5.816;2022-12-18T05:10:45;14.87;;;7.27;;
68993;SDS011;56054;50.968;5.816;2022-12-18T05:13:52;13.40;;;6.70;;
68993;SDS011;56054;50.968;5.816;2022-12-18T05:16:59;14.77;;;7.17;;
68993;SDS011;56054;50.968;5.816;2022-12-18T05:20:06;12.30;;;6.40;;
68993;SDS011;56054;50.968;5.816;2022-12-18T05:23:14;14.07;;;7.43;;
68993;SDS011;56054;50.968;5.816;2022-12-18T05:26:21;13.37;;;7.03;;
68993;SDS011;56054;50.968;5.816;2022-12-18T05:29:28;14.30;;;7.50;;
68993;SDS011;56054;50.968;5.816;2022-12-18T05:32:35;14.27;;;7.67;;
68993;SDS011;56054;50.968;5.816;2022-12-18T05:35:42;12.13;;;7.90;;
68993;SDS011;56054;50.968;5.816;2022-12-18T05:38:49;14.33;;;7.67;;
68993;SDS011;56054;50.968;5.816;2022-12-18T05:41:56;14.43;;;8.57;;
68993;SDS011;56054;50.968;5.816;2022-12-18T05:45:03;15.63;;;8.03;;
68993;SDS011;56054;50.968;5.816;2022-12-18T05:48:11;15.03;;;8.10;;
68993;SDS011;56054;50.968;5.816;2022-12-18T05:51:19;12.73;;;6.63;;
68993;SDS011;56054;50.968;5.816;2022-12-18T05:54:27;12.03;;;7.20;;
68993;SDS011;56054;50.968;5.816;2022-12-18T05:57:35;14.67;;;8.10;;
68993;SDS011;56054;50.968;5.816;2022-12-18T06:00:43;14.50;;;6.43;;
68993;SDS011;56054;50.968;5.816;2022-12-18T06:03:52;14.70;;;8.57;;
68993;SDS011;56054;50.968;5.816;2022-12-18T06:06:59;14.90;;;7.83;;
68993;SDS011;56054;50.968;5.816;2022-12-18T06:10:06;13.80;;;7.47;;
68993;SDS011;56054;50.968;5.816;2022-12-18T06:13:13;17.30;;;9.07;;
68993;SDS011;56054;50.968;5.816;2022-12-18T06:16:20;15.47;;;8.17;;
68993;SDS011;56054;50.968;5.816;2022-12-18T06:19:27;19.03;;;8.37;;
68993;SDS011;56054;50.968;5.816;2022-12-18T06:22:34;15.30;;;8.07;;
68993;SDS011;56054;50.968;5.816;2022-12-18T06:25:41;18.23;;;8.30;;
68993;SDS011;56054;50.968;5.816;2022-12-18T06:28:48;17.40;;;7.83;;
68993;SDS011;56054;50.968;5.816;2022-12-18T06:31:55;13.30;;;7.87;;
68993;SDS011;56054;50.968;5.816;2022-12-18T06:35:02;13.63;;;8.13;;
68993;SDS011;56054;50.968;5.816;2022-12-18T06:38:09;16.40;;;8.27;;
68993;SDS011;56054;50.968;5.816;2022-12-18T06:41:17;13.07;;;6.77;;
68993;SDS011;56054;50.968;5.816;2022-12-18T06:44:26;15.03;;;8.50;;
68993;SDS011;56054;50.968;5.816;2022-12-18T06:47:33;19.20;;;9.07;;
68993;SDS011;56054;50.968;5.816;2022-12-18T06:50:42;10.77;;;6.93;;
68993;SDS011;56054;50.968;5.816;2022-12-18T06:53:49;14.77;;;6.77;;
68993;SDS011;56054;50.968;5.816;2022-12-18T06:56:56;15.67;;;8.20;;
68993;SDS011;56054;50.968;5.816;2022-12-18T07:00:04;15.90;;;7.80;;
68993;SDS011;56054;50.968;5.816;2022-12-18T07:03:12;13.57;;;7.00;;
68993;SDS011;56054;50.968;5.816;2022-12-18T07:06:20;14.07;;;6.57;;
68993;SDS011;56054;50.968;5.816;2022-12-18T07:09:28;19.17;;;7.30;;
68993;SDS011;56054;50.968;5.816;2022-12-18T07:12:35;18.57;;;7.57;;
68993;SDS011;56054;50.968;5.816;2022-12-18T07:15:42;18.37;;;8.57;;
68993;SDS011;56054;50.968;5.816;2022-12-18T07:18:50;18.00;;;7.67;;
68993;SDS011;56054;50.968;5.816;2022-12-18T07:21:57;11.90;;;6.50;;
68993;SDS011;56054;50.968;5.816;2022-12-18T07:25:04;15.33;;;7.23;;
68993;SDS011;56054;50.968;5.816;2022-12-18T07:28:11;12.77;;;7.23;;
68993;SDS011;56054;50.968;5.816;2022-12-18T07:31:19;23.40;;;7.93;;
68993;SDS011;56054;50.968;5.816;2022-12-18T07:34:27;15.23;;;7.30;;
68993;SDS011;56054;50.968;5.816;2022-12-18T07:37:34;11.43;;;7.27;;
68993;SDS011;56054;50.968;5.816;2022-12-18T07:40:43;18.80;;;9.07;;
68993;SDS011;56054;50.968;5.816;2022-12-18T07:43:51;12.53;;;7.57;;
68993;SDS011;56054;50.968;5.816;2022-12-18T07:46:58;20.70;;;9.07;;
68993;SDS011;56054;50.968;5.816;2022-12-18T07:50:05;19.80;;;8.93;;
68993;SDS011;56054;50.968;5.816;2022-12-18T07:53:12;16.30;;;7.17;;
68993;SDS011;56054;50.968;5.816;2022-12-18T07:56:19;22.17;;;8.47;;
68993;SDS011;56054;50.968;5.816;2022-12-18T07:59:27;17.00;;;8.03;;
68993;SDS011;56054;50.968;5.816;2022-12-18T08:02:34;16.03;;;8.37;;
68993;SDS011;56054;50.968;5.816;2022-12-18T08:05:41;16.63;;;9.17;;
68993;SDS011;56054;50.968;5.816;2022-12-18T08:08:53;16.67;;;8.50;;
68993;SDS011;56054;50.968;5.816;2022-12-18T08:12:01;18.03;;;9.50;;
68993;SDS011;56054;50.968;5.816;2022-12-18T08:15:08;18.23;;;8.83;;
68993;SDS011;56054;50.968;5.816;2022-12-18T08:18:15;13.87;;;7.13;;
68993;SDS011;56054;50.968;5.816;2022-12-18T08:21:26;20.40;;;8.37;;
68993;SDS011;56054;50.968;5.816;2022-12-18T08:24:35;14.13;;;8.57;;
68993;SDS011;56054;50.968;5.816;2022-12-18T08:27:42;18.77;;;8.83;;
68993;SDS011;56054;50.968;5.816;2022-12-18T08:30:51;22.03;;;9.73;;
68993;SDS011;56054;50.968;5.816;2022-12-18T08:33:58;16.20;;;9.50;;
68993;SDS011;56054;50.968;5.816;2022-12-18T08:37:05;18.20;;;8.57;;
68993;SDS011;56054;50.968;5.816;2022-12-18T08:40:12;17.33;;;9.77;;
68993;SDS011;56054;50.968;5.816;2022-12-18T08:43:26;17.30;;;8.63;;
68993;SDS011;56054;50.968;5.816;2022-12-18T08:46:37;19.53;;;7.87;;
68993;SDS011;56054;50.968;5.816;2022-12-18T08:49:46;17.87;;;8.53;;
68993;SDS011;56054;50.968;5.816;2022-12-18T08:52:53;17.10;;;9.23;;
68993;SDS011;56054;50.968;5.816;2022-12-18T08:56:00;16.90;;;7.97;;
68993;SDS011;56054;50.968;5.816;2022-12-18T08:59:07;15.90;;;7.30;;
68993;SDS011;56054;50.968;5.816;2022-12-18T09:02:15;18.10;;;9.60;;
68993;SDS011;56054;50.968;5.816;2022-12-18T09:05:22;17.60;;;9.33;;
68993;SDS011;56054;50.968;5.816;2022-12-18T09:08:29;17.77;;;8.43;;
68993;SDS011;56054;50.968;5.816;2022-12-18T09:11:36;18.93;;;9.67;;
68993;SDS011;56054;50.968;5.816;2022-12-18T09:14:43;22.93;;;9.03;;
68993;SDS011;56054;50.968;5.816;2022-12-18T09:17:50;23.00;;;10.67;;
68993;SDS011;56054;50.968;5.816;2022-12-18T09:20:57;21.47;;;10.57;;
68993;SDS011;56054;50.968;5.816;2022-12-18T09:24:04;23.83;;;9.43;;
68993;SDS011;56054;50.968;5.816;2022-12-18T09:27:11;19.40;;;8.80;;
68993;SDS011;56054;50.968;5.816;2022-12-18T09:30:18;19.23;;;9.27;;
68993;SDS011;56054;50.968;5.816;2022-12-18T09:33:25;20.90;;;9.60;;
68993;SDS011;56054;50.968;5.816;2022-12-18T09:36:32;20.83;;;10.47;;
68993;SDS011;56054;50.968;5.816;2022-12-18T09:39:39;21.17;;;9.37;;
68993;SDS011;56054;50.968;5.816;2022-12-18T09:42:47;23.83;;;10.60;;
68993;SDS011;56054;50.968;5.816;2022-12-18T09:46:01;18.00;;;9.77;;
68993;SDS011;56054;50.968;5.816;2022-12-18T09:49:13;18.77;;;9.60;;
68993;SDS011;56054;50.968;5.816;2022-12-18T09:55:42;18.83;;;10.17;;
68993;SDS011;56054;50.968;5.816;2022-12-18T09:58:56;17.97;;;10.17;;
68993;SDS011;56054;50.968;5.816;2022-12-18T10:02:13;26.53;;;10.93;;
68993;SDS011;56054;50.968;5.816;2022-12-18T10:12:23;15.93;;;9.63;;
68993;SDS011;56054;50.968;5.816;2022-12-18T10:15:40;25.67;;;10.20;;
68993;SDS011;56054;50.968;5.816;2022-12-18T10:29:10;19.00;;;9.07;;
68993;SDS011;56054;50.968;5.816;2022-12-18T10:32:21;19.70;;;10.30;;
68993;SDS011;56054;50.968;5.816;2022-12-18T10:35:36;23.67;;;12.33;;
68993;SDS011;56054;50.968;5.816;2022-12-18T10:38:47;20.23;;;11.07;;
68993;SDS011;56054;50.968;5.816;2022-12-18T10:45:24;25.47;;;12.07;;
68993;SDS011;56054;50.968;5.816;2022-12-18T10:48:31;22.03;;;12.33;;
68993;SDS011;56054;50.968;5.816;2022-12-18T10:51:40;24.03;;;11.73;;
68993;SDS011;56054;50.968;5.816;2022-12-18T10:58:28;23.10;;;10.63;;
68993;SDS011;56054;50.968;5.816;2022-12-18T11:05:38;27.07;;;11.30;;
68993;SDS011;56054;50.968;5.816;2022-12-18T11:08:40;23.60;;;11.60;;
68993;SDS011;56054;50.968;5.816;2022-12-18T11:12:19;20.57;;;10.20;;
68993;SDS011;56054;50.968;5.816;2022-12-18T11:15:30;22.50;;;11.10;;
68993;SDS011;56054;50.968;5.816;2022-12-18T11:18:37;21.90;;;11.03;;
68993;SDS011;56054;50.968;5.816;2022-12-18T11:21:44;25.43;;;12.00;;
68993;SDS011;56054;50.968;5.816;2022-12-18T11:25:16;25.83;;;11.83;;
68993;SDS011;56054;50.968;5.816;2022-12-18T11:28:35;20.83;;;10.43;;
68993;SDS011;56054;50.968;5.816;2022-12-18T11:35:53;24.13;;;11.73;;
68993;SDS011;56054;50.968;5.816;2022-12-18T11:42:52;19.97;;;10.37;;
68993;SDS011;56054;50.968;5.816;2022-12-18T11:46:14;24.10;;;11.33;;
68993;SDS011;56054;50.968;5.816;2022-12-18T11:49:49;24.90;;;11.77;;
68993;SDS011;56054;50.968;5.816;2022-12-18T11:52:56;24.53;;;10.93;;
68993;SDS011;56054;50.968;5.816;2022-12-18T12:06:47;20.20;;;10.97;;
68993;SDS011;56054;50.968;5.816;2022-12-18T12:13:36;21.87;;;11.87;;
68993;SDS011;56054;50.968;5.816;2022-12-18T12:16:59;24.50;;;11.90;;
68993;SDS011;56054;50.968;5.816;2022-12-18T12:30:03;23.67;;;11.47;;
68993;SDS011;56054;50.968;5.816;2022-12-18T12:36:44;26.07;;;11.40;;
68993;SDS011;56054;50.968;5.816;2022-12-18T12:39:53;19.93;;;9.97;;
68993;SDS011;56054;50.968;5.816;2022-12-18T12:43:03;25.80;;;11.83;;
68993;SDS011;56054;50.968;5.816;2022-12-18T12:46:20;31.53;;;14.07;;
68993;SDS011;56054;50.968;5.816;2022-12-18T12:49:31;21.00;;;10.77;;
68993;SDS011;56054;50.968;5.816;2022-12-18T12:52:47;22.73;;;12.10;;
68993;SDS011;56054;50.968;5.816;2022-12-18T12:55:58;25.40;;;11.33;;
68993;SDS011;56054;50.968;5.816;2022-12-18T13:06:24;30.47;;;12.10;;
68993;SDS011;56054;50.968;5.816;2022-12-18T13:10:12;23.63;;;11.97;;
68993;SDS011;56054;50.968;5.816;2022-12-18T13:13:22;22.10;;;11.33;;
68993;SDS011;56054;50.968;5.816;2022-12-18T13:16:29;28.33;;;13.03;;
68993;SDS011;56054;50.968;5.816;2022-12-18T13:19:36;29.10;;;13.47;;
68993;SDS011;56054;50.968;5.816;2022-12-18T13:22:44;22.83;;;11.63;;
68993;SDS011;56054;50.968;5.816;2022-12-18T13:25:54;25.57;;;12.07;;
68993;SDS011;56054;50.968;5.816;2022-12-18T13:29:04;22.67;;;12.00;;
68993;SDS011;56054;50.968;5.816;2022-12-18T13:32:44;27.40;;;13.60;;
68993;SDS011;56054;50.968;5.816;2022-12-18T13:42:34;28.20;;;13.17;;
68993;SDS011;56054;50.968;5.816;2022-12-18T13:45:47;31.70;;;13.27;;
68993;SDS011;56054;50.968;5.816;2022-12-18T13:52:21;26.40;;;12.63;;
68993;SDS011;56054;50.968;5.816;2022-12-18T13:55:31;27.10;;;13.40;;
68993;SDS011;56054;50.968;5.816;2022-12-18T13:58:40;23.17;;;11.43;;
68993;SDS011;56054;50.968;5.816;2022-12-18T14:01:57;26.87;;;13.10;;
68993;SDS011;56054;50.968;5.816;2022-12-18T14:05:34;28.80;;;13.97;;
68993;SDS011;56054;50.968;5.816;2022-12-18T14:08:45;25.97;;;13.40;;
68993;SDS011;56054;50.968;5.816;2022-12-18T14:11:53;27.00;;;13.30;;
68993;SDS011;56054;50.968;5.816;2022-12-18T14:15:01;29.80;;;13.00;;
68993;SDS011;56054;50.968;5.816;2022-12-18T14:18:22;31.73;;;14.37;;
68993;SDS011;56054;50.968;5.816;2022-12-18T14:21:32;28.80;;;14.17;;
68993;SDS011;56054;50.968;5.816;2022-12-18T14:24:40;29.33;;;14.10;;
68993;SDS011;56054;50.968;5.816;2022-12-18T14:27:50;24.17;;;13.47;;
68993;SDS011;56054;50.968;5.816;2022-12-18T14:30:58;25.43;;;13.00;;
68993;SDS011;56054;50.968;5.816;2022-12-18T14:34:08;26.70;;;12.93;;
68993;SDS011;56054;50.968;5.816;2022-12-18T14:37:24;25.00;;;12.47;;
68993;SDS011;56054;50.968;5.816;2022-12-18T14:40:35;31.27;;;12.37;;
68993;SDS011;56054;50.968;5.816;2022-12-18T14:43:44;27.73;;;12.20;;
68993;SDS011;56054;50.968;5.816;2022-12-18T14:46:55;30.27;;;13.23;;
68993;SDS011;56054;50.968;5.816;2022-12-18T14:50:02;27.93;;;12.63;;
68993;SDS011;56054;50.968;5.816;2022-12-18T14:53:20;26.47;;;12.43;;
68993;SDS011;56054;50.968;5.816;2022-12-18T14:56:35;24.23;;;11.60;;
68993;SDS011;56054;50.968;5.816;2022-12-18T14:59:43;27.37;;;12.90;;
68993;SDS011;56054;50.968;5.816;2022-12-18T15:02:52;26.93;;;11.93;;
68993;SDS011;56054;50.968;5.816;2022-12-18T15:06:14;25.83;;;11.57;;
68993;SDS011;56054;50.968;5.816;2022-12-18T15:13:21;23.50;;;12.47;;
68993;SDS011;56054;50.968;5.816;2022-12-18T15:16:30;23.73;;;12.50;;
68993;SDS011;56054;50.968;5.816;2022-12-18T16:00:25;32.50;;;15.00;;
68993;SDS011;56054;50.968;5.816;2022-12-18T16:04:29;28.33;;;13.50;;
68993;SDS011;56054;50.968;5.816;2022-12-18T16:58:43;33.43;;;16.07;;
68993;SDS011;56054;50.968;5.816;2022-12-18T17:01:50;35.03;;;16.40;;
68993;SDS011;56054;50.968;5.816;2022-12-18T17:05:06;31.03;;;14.87;;
68993;SDS011;56054;50.968;5.816;2022-12-18T17:08:13;27.30;;;15.13;;
68993;SDS011;56054;50.968;5.816;2022-12-18T17:11:20;29.67;;;15.00;;
68993;SDS011;56054;50.968;5.816;2022-12-18T17:14:27;29.63;;;14.63;;
68993;SDS011;56054;50.968;5.816;2022-12-18T17:17:35;31.20;;;14.93;;
68993;SDS011;56054;50.968;5.816;2022-12-18T17:20:42;36.63;;;13.87;;
68993;SDS011;56054;50.968;5.816;2022-12-18T17:23:50;32.07;;;15.57;;
68993;SDS011;56054;50.968;5.816;2022-12-18T17:26:57;29.70;;;15.03;;
68993;SDS011;56054;50.968;5.816;2022-12-18T17:30:04;33.77;;;15.97;;
68993;SDS011;56054;50.968;5.816;2022-12-18T17:33:21;34.87;;;15.47;;
68993;SDS011;56054;50.968;5.816;2022-12-18T17:36:30;31.07;;;15.63;;
68993;SDS011;56054;50.968;5.816;2022-12-18T17:39:47;31.03;;;14.63;;
68993;SDS011;56054;50.968;5.816;2022-12-18T17:43:07;35.17;;;15.10;;
68993;SDS011;56054;50.968;5.816;2022-12-18T17:46:15;29.17;;;14.73;;
68993;SDS011;56054;50.968;5.816;2022-12-18T17:49:22;26.23;;;15.07;;
68993;SDS011;56054;50.968;5.816;2022-12-18T17:52:29;31.27;;;14.73;;
68993;SDS011;56054;50.968;5.816;2022-12-18T17:55:36;29.73;;;14.37;;
68993;SDS011;56054;50.968;5.816;2022-12-18T17:58:43;28.67;;;14.33;;
68993;SDS011;56054;50.968;5.816;2022-12-18T18:01:50;30.33;;;15.77;;
68993;SDS011;56054;50.968;5.816;2022-12-18T18:04:57;35.33;;;16.63;;
68993;SDS011;56054;50.968;5.816;2022-12-18T18:08:06;35.47;;;16.97;;
68993;SDS011;56054;50.968;5.816;2022-12-18T18:11:20;40.43;;;17.00;;
68993;SDS011;56054;50.968;5.816;2022-12-18T18:14:29;32.50;;;17.40;;
68993;SDS011;56054;50.968;5.816;2022-12-18T18:17:40;33.60;;;16.73;;
68993;SDS011;56054;50.968;5.816;2022-12-18T18:20:51;35.37;;;17.30;;
68993;SDS011;56054;50.968;5.816;2022-12-18T18:23:59;31.83;;;14.87;;
68993;SDS011;56054;50.968;5.816;2022-12-18T18:27:07;27.87;;;15.50;;
68993;SDS011;56054;50.968;5.816;2022-12-18T18:30:15;40.03;;;16.70;;
68993;SDS011;56054;50.968;5.816;2022-12-18T18:33:22;32.40;;;16.37;;
68993;SDS011;56054;50.968;5.816;2022-12-18T18:36:30;28.33;;;15.90;;
68993;SDS011;56054;50.968;5.816;2022-12-18T18:39:41;42.00;;;21.37;;
68993;SDS011;56054;50.968;5.816;2022-12-18T18:42:48;46.50;;;22.03;;
68993;SDS011;56054;50.968;5.816;2022-12-18T18:45:56;40.67;;;16.67;;
68993;SDS011;56054;50.968;5.816;2022-12-18T18:49:29;30.63;;;16.00;;
68993;SDS011;56054;50.968;5.816;2022-12-18T18:52:36;34.93;;;17.97;;
68993;SDS011;56054;50.968;5.816;2022-12-18T18:55:43;35.23;;;16.73;;
68993;SDS011;56054;50.968;5.816;2022-12-18T18:58:57;33.10;;;15.80;;
68993;SDS011;56054;50.968;5.816;2022-12-18T19:02:06;34.97;;;16.20;;
68993;SDS011;56054;50.968;5.816;2022-12-18T19:05:21;36.83;;;16.47;;
68993;SDS011;56054;50.968;5.816;2022-12-18T19:08:45;35.03;;;17.37;;
68993;SDS011;56054;50.968;5.816;2022-12-18T19:11:55;46.33;;;21.60;;
68993;SDS011;56054;50.968;5.816;2022-12-18T19:15:03;48.80;;;22.80;;
68993;SDS011;56054;50.968;5.816;2022-12-18T19:18:11;47.63;;;22.37;;
68993;SDS011;56054;50.968;5.816;2022-12-18T19:21:20;40.07;;;20.53;;
68993;SDS011;56054;50.968;5.816;2022-12-18T19:24:36;34.20;;;16.57;;
68993;SDS011;56054;50.968;5.816;2022-12-18T19:27:46;30.50;;;16.63;;
68993;SDS011;56054;50.968;5.816;2022-12-18T19:30:54;40.13;;;19.60;;
68993;SDS011;56054;50.968;5.816;2022-12-18T19:34:16;35.60;;;17.63;;
68993;SDS011;56054;50.968;5.816;2022-12-18T19:37:23;42.20;;;18.80;;
68993;SDS011;56054;50.968;5.816;2022-12-18T19:44:05;34.77;;;18.60;;
68993;SDS011;56054;50.968;5.816;2022-12-18T19:47:27;44.93;;;20.63;;
68993;SDS011;56054;50.968;5.816;2022-12-18T19:51:06;67.63;;;26.63;;
68993;SDS011;56054;50.968;5.816;2022-12-18T19:54:20;53.60;;;23.00;;
68993;SDS011;56054;50.968;5.816;2022-12-18T19:57:27;43.60;;;21.17;;
68993;SDS011;56054;50.968;5.816;2022-12-18T20:01:00;47.00;;;21.27;;
68993;SDS011;56054;50.968;5.816;2022-12-18T20:04:33;41.00;;;17.57;;
68993;SDS011;56054;50.968;5.816;2022-12-18T20:08:20;32.90;;;16.57;;
68993;SDS011;56054;50.968;5.816;2022-12-18T20:11:35;29.17;;;15.70;;
68993;SDS011;56054;50.968;5.816;2022-12-18T20:15:11;34.50;;;17.13;;
68993;SDS011;56054;50.968;5.816;2022-12-18T20:18:25;32.43;;;16.13;;
68993;SDS011;56054;50.968;5.816;2022-12-18T20:21:58;33.33;;;17.33;;
68993;SDS011;56054;50.968;5.816;2022-12-18T20:25:12;35.17;;;16.93;;
68993;SDS011;56054;50.968;5.816;2022-12-18T20:28:21;33.90;;;17.27;;
68993;SDS011;56054;50.968;5.816;2022-12-18T20:31:54;34.23;;;17.27;;
68993;SDS011;56054;50.968;5.816;2022-12-18T20:35:06;34.33;;;16.83;;
68993;SDS011;56054;50.968;5.816;2022-12-18T20:38:13;48.37;;;20.70;;
68993;SDS011;56054;50.968;5.816;2022-12-18T20:41:21;38.90;;;18.97;;
68993;SDS011;56054;50.968;5.816;2022-12-18T20:44:28;38.93;;;17.87;;
68993;SDS011;56054;50.968;5.816;2022-12-18T20:47:35;45.30;;;19.03;;
68993;SDS011;56054;50.968;5.816;2022-12-18T20:50:42;36.10;;;18.47;;
68993;SDS011;56054;50.968;5.816;2022-12-18T20:53:50;36.20;;;18.23;;
68993;SDS011;56054;50.968;5.816;2022-12-18T20:56:58;46.37;;;18.87;;
68993;SDS011;56054;50.968;5.816;2022-12-18T21:00:13;38.47;;;18.87;;
68993;SDS011;56054;50.968;5.816;2022-12-18T21:03:20;43.57;;;20.23;;
68993;SDS011;56054;50.968;5.816;2022-12-18T21:06:27;44.93;;;21.53;;
68993;SDS011;56054;50.968;5.816;2022-12-18T21:09:34;37.90;;;20.27;;
68993;SDS011;56054;50.968;5.816;2022-12-18T21:12:41;42.30;;;20.03;;
68993;SDS011;56054;50.968;5.816;2022-12-18T21:15:48;35.47;;;19.43;;
68993;SDS011;56054;50.968;5.816;2022-12-18T21:19:00;42.20;;;19.70;;
68993;SDS011;56054;50.968;5.816;2022-12-18T21:22:08;41.87;;;20.87;;
68993;SDS011;56054;50.968;5.816;2022-12-18T21:25:15;42.67;;;20.97;;
68993;SDS011;56054;50.968;5.816;2022-12-18T21:28:22;51.17;;;22.67;;
68993;SDS011;56054;50.968;5.816;2022-12-18T21:31:36;48.57;;;22.00;;
68993;SDS011;56054;50.968;5.816;2022-12-18T21:34:44;43.50;;;21.40;;
68993;SDS011;56054;50.968;5.816;2022-12-18T21:37:51;41.27;;;20.90;;
68993;SDS011;56054;50.968;5.816;2022-12-18T21:40:58;36.33;;;17.13;;
68993;SDS011;56054;50.968;5.816;2022-12-18T21:44:05;43.67;;;18.00;;
68993;SDS011;56054;50.968;5.816;2022-12-18T21:47:13;44.50;;;19.97;;
68993;SDS011;56054;50.968;5.816;2022-12-18T21:50:21;34.47;;;17.03;;
68993;SDS011;56054;50.968;5.816;2022-12-18T21:53:29;37.53;;;17.87;;
68993;SDS011;56054;50.968;5.816;2022-12-18T21:56:43;38.30;;;17.60;;